sensor_id;sensor_type;location;lat;lon;timestamp;P1;durP1;ratioP1;P2;durP2;ratioP2
76495;SDS011;65329;52.544;4.662;2022-12-18T00:01:03;37.55;;;15.35;;
76495;SDS011;65329;52.544;4.662;2022-12-18T00:03:34;42.22;;;17.33;;
76495;SDS011;65329;52.544;4.662;2022-12-18T00:06:02;37.30;;;16.10;;
76495;SDS011;65329;52.544;4.662;2022-12-18T00:08:28;37.60;;;14.68;;
76495;SDS011;65329;52.544;4.662;2022-12-18T00:10:55;38.63;;;16.15;;
76495;SDS011;65329;52.544;4.662;2022-12-18T00:13:32;37.22;;;16.35;;
76495;SDS011;65329;52.544;4.662;2022-12-18T00:16:03;40.53;;;17.10;;
76495;SDS011;65329;52.544;4.662;2022-12-18T00:18:31;35.25;;;15.57;;
76495;SDS011;65329;52.544;4.662;2022-12-18T00:20:59;45.20;;;16.70;;
76495;SDS011;65329;52.544;4.662;2022-12-18T00:23:28;42.67;;;16.20;;
76495;SDS011;65329;52.544;4.662;2022-12-18T00:25:59;40.28;;;16.80;;
76495;SDS011;65329;52.544;4.662;2022-12-18T00:28:30;39.03;;;15.88;;
76495;SDS011;65329;52.544;4.662;2022-12-18T00:31:01;38.97;;;16.00;;
76495;SDS011;65329;52.544;4.662;2022-12-18T00:33:29;38.60;;;16.08;;
76495;SDS011;65329;52.544;4.662;2022-12-18T00:38:31;36.65;;;14.32;;
76495;SDS011;65329;52.544;4.662;2022-12-18T00:40:58;35.22;;;15.45;;
76495;SDS011;65329;52.544;4.662;2022-12-18T00:43:25;36.17;;;15.70;;
76495;SDS011;65329;52.544;4.662;2022-12-18T00:45:52;42.35;;;16.17;;
76495;SDS011;65329;52.544;4.662;2022-12-18T00:48:19;37.95;;;15.65;;
76495;SDS011;65329;52.544;4.662;2022-12-18T00:50:47;38.97;;;16.38;;
76495;SDS011;65329;52.544;4.662;2022-12-18T00:53:15;32.10;;;14.82;;
76495;SDS011;65329;52.544;4.662;2022-12-18T00:55:42;41.63;;;16.13;;
76495;SDS011;65329;52.544;4.662;2022-12-18T00:58:10;32.05;;;13.18;;
76495;SDS011;65329;52.544;4.662;2022-12-18T01:00:38;35.33;;;15.07;;
76495;SDS011;65329;52.544;4.662;2022-12-18T01:03:05;31.90;;;13.02;;
76495;SDS011;65329;52.544;4.662;2022-12-18T01:05:32;34.00;;;15.15;;
76495;SDS011;65329;52.544;4.662;2022-12-18T01:07:59;33.65;;;13.38;;
76495;SDS011;65329;52.544;4.662;2022-12-18T01:10:26;34.28;;;14.88;;
76495;SDS011;65329;52.544;4.662;2022-12-18T01:12:56;34.22;;;15.95;;
76495;SDS011;65329;52.544;4.662;2022-12-18T01:15:23;39.20;;;16.38;;
76495;SDS011;65329;52.544;4.662;2022-12-18T01:17:51;34.20;;;14.35;;
76495;SDS011;65329;52.544;4.662;2022-12-18T01:20:19;37.67;;;15.55;;
76495;SDS011;65329;52.544;4.662;2022-12-18T01:22:46;34.90;;;14.05;;
76495;SDS011;65329;52.544;4.662;2022-12-18T01:25:13;36.22;;;14.95;;
76495;SDS011;65329;52.544;4.662;2022-12-18T01:27:39;32.35;;;14.70;;
76495;SDS011;65329;52.544;4.662;2022-12-18T01:30:06;30.58;;;14.65;;
76495;SDS011;65329;52.544;4.662;2022-12-18T01:32:33;30.85;;;12.77;;
76495;SDS011;65329;52.544;4.662;2022-12-18T01:35:01;31.85;;;15.02;;
76495;SDS011;65329;52.544;4.662;2022-12-18T01:37:27;37.60;;;15.55;;
76495;SDS011;65329;52.544;4.662;2022-12-18T01:39:54;36.13;;;13.38;;
76495;SDS011;65329;52.544;4.662;2022-12-18T01:42:21;35.22;;;14.35;;
76495;SDS011;65329;52.544;4.662;2022-12-18T01:50:04;36.05;;;13.75;;
76495;SDS011;65329;52.544;4.662;2022-12-18T01:52:35;33.70;;;13.45;;
76495;SDS011;65329;52.544;4.662;2022-12-18T01:55:07;33.55;;;12.90;;
76495;SDS011;65329;52.544;4.662;2022-12-18T01:57:35;33.30;;;14.73;;
76495;SDS011;65329;52.544;4.662;2022-12-18T02:00:08;32.67;;;14.45;;
76495;SDS011;65329;52.544;4.662;2022-12-18T02:02:44;28.92;;;13.85;;
76495;SDS011;65329;52.544;4.662;2022-12-18T02:05:13;34.47;;;14.52;;
76495;SDS011;65329;52.544;4.662;2022-12-18T02:18:49;31.63;;;14.55;;
76495;SDS011;65329;52.544;4.662;2022-12-18T02:24:03;32.67;;;13.95;;
76495;SDS011;65329;52.544;4.662;2022-12-18T02:26:37;30.40;;;13.43;;
76495;SDS011;65329;52.544;4.662;2022-12-18T02:29:24;32.65;;;13.80;;
76495;SDS011;65329;52.544;4.662;2022-12-18T02:32:01;30.42;;;13.52;;
76495;SDS011;65329;52.544;4.662;2022-12-18T02:34:31;29.90;;;13.73;;
76495;SDS011;65329;52.544;4.662;2022-12-18T02:37:07;30.80;;;14.05;;
76495;SDS011;65329;52.544;4.662;2022-12-18T02:39:38;31.27;;;13.40;;
76495;SDS011;65329;52.544;4.662;2022-12-18T02:42:10;37.00;;;16.25;;
76495;SDS011;65329;52.544;4.662;2022-12-18T02:44:45;35.85;;;13.52;;
76495;SDS011;65329;52.544;4.662;2022-12-18T02:47:19;29.23;;;12.50;;
76495;SDS011;65329;52.544;4.662;2022-12-18T02:57:58;34.10;;;13.77;;
76495;SDS011;65329;52.544;4.662;2022-12-18T03:00:37;31.38;;;13.98;;
76495;SDS011;65329;52.544;4.662;2022-12-18T03:05:45;32.50;;;13.02;;
76495;SDS011;65329;52.544;4.662;2022-12-18T03:08:36;39.40;;;14.30;;
76495;SDS011;65329;52.544;4.662;2022-12-18T03:11:09;29.65;;;14.20;;
76495;SDS011;65329;52.544;4.662;2022-12-18T03:16:11;25.13;;;12.60;;
76495;SDS011;65329;52.544;4.662;2022-12-18T03:19:03;27.48;;;12.23;;
76495;SDS011;65329;52.544;4.662;2022-12-18T03:22:07;29.58;;;13.48;;
76495;SDS011;65329;52.544;4.662;2022-12-18T03:24:36;31.40;;;12.68;;
76495;SDS011;65329;52.544;4.662;2022-12-18T03:27:07;33.28;;;14.07;;
76495;SDS011;65329;52.544;4.662;2022-12-18T03:29:42;28.65;;;13.00;;
76495;SDS011;65329;52.544;4.662;2022-12-18T03:32:21;31.67;;;13.95;;
76495;SDS011;65329;52.544;4.662;2022-12-18T03:34:52;33.08;;;13.52;;
76495;SDS011;65329;52.544;4.662;2022-12-18T03:37:32;36.08;;;14.95;;
76495;SDS011;65329;52.544;4.662;2022-12-18T03:39:59;29.63;;;11.93;;
76495;SDS011;65329;52.544;4.662;2022-12-18T03:42:37;36.13;;;15.43;;
76495;SDS011;65329;52.544;4.662;2022-12-18T03:45:13;32.15;;;13.55;;
76495;SDS011;65329;52.544;4.662;2022-12-18T03:48:19;31.00;;;13.30;;
76495;SDS011;65329;52.544;4.662;2022-12-18T03:50:59;34.22;;;14.52;;
76495;SDS011;65329;52.544;4.662;2022-12-18T03:56:29;32.42;;;12.57;;
76495;SDS011;65329;52.544;4.662;2022-12-18T03:58:59;34.50;;;14.00;;
76495;SDS011;65329;52.544;4.662;2022-12-18T04:01:33;30.73;;;14.23;;
76495;SDS011;65329;52.544;4.662;2022-12-18T04:04:05;29.33;;;12.50;;
76495;SDS011;65329;52.544;4.662;2022-12-18T04:06:37;28.80;;;12.48;;
76495;SDS011;65329;52.544;4.662;2022-12-18T04:09:06;31.55;;;13.50;;
76495;SDS011;65329;52.544;4.662;2022-12-18T04:11:38;24.33;;;11.38;;
76495;SDS011;65329;52.544;4.662;2022-12-18T04:14:07;24.75;;;10.95;;
76495;SDS011;65329;52.544;4.662;2022-12-18T04:16:37;26.60;;;12.13;;
76495;SDS011;65329;52.544;4.662;2022-12-18T04:19:07;24.67;;;11.43;;
76495;SDS011;65329;52.544;4.662;2022-12-18T04:21:38;26.95;;;12.55;;
76495;SDS011;65329;52.544;4.662;2022-12-18T04:24:06;27.48;;;12.02;;
76495;SDS011;65329;52.544;4.662;2022-12-18T04:26:35;27.95;;;11.18;;
76495;SDS011;65329;52.544;4.662;2022-12-18T04:29:14;27.10;;;11.68;;
76495;SDS011;65329;52.544;4.662;2022-12-18T04:31:41;23.90;;;11.95;;
76495;SDS011;65329;52.544;4.662;2022-12-18T04:34:08;28.20;;;11.48;;
76495;SDS011;65329;52.544;4.662;2022-12-18T04:36:41;28.83;;;12.38;;
76495;SDS011;65329;52.544;4.662;2022-12-18T04:39:08;24.15;;;12.68;;
76495;SDS011;65329;52.544;4.662;2022-12-18T04:41:35;23.13;;;10.60;;
76495;SDS011;65329;52.544;4.662;2022-12-18T04:44:02;24.67;;;10.82;;
76495;SDS011;65329;52.544;4.662;2022-12-18T04:46:29;26.05;;;11.55;;
76495;SDS011;65329;52.544;4.662;2022-12-18T04:48:56;26.55;;;11.50;;
76495;SDS011;65329;52.544;4.662;2022-12-18T04:51:23;24.90;;;11.02;;
76495;SDS011;65329;52.544;4.662;2022-12-18T04:53:52;27.50;;;11.07;;
76495;SDS011;65329;52.544;4.662;2022-12-18T04:56:19;26.70;;;10.88;;
76495;SDS011;65329;52.544;4.662;2022-12-18T04:58:46;23.42;;;11.13;;
76495;SDS011;65329;52.544;4.662;2022-12-18T05:01:13;24.30;;;11.45;;
76495;SDS011;65329;52.544;4.662;2022-12-18T05:03:42;21.83;;;10.32;;
76495;SDS011;65329;52.544;4.662;2022-12-18T05:06:10;21.90;;;10.35;;
76495;SDS011;65329;52.544;4.662;2022-12-18T05:08:36;23.95;;;11.60;;
76495;SDS011;65329;52.544;4.662;2022-12-18T05:11:04;23.35;;;11.20;;
76495;SDS011;65329;52.544;4.662;2022-12-18T05:13:36;21.25;;;10.48;;
76495;SDS011;65329;52.544;4.662;2022-12-18T05:16:05;22.60;;;10.32;;
76495;SDS011;65329;52.544;4.662;2022-12-18T05:18:32;25.15;;;11.23;;
76495;SDS011;65329;52.544;4.662;2022-12-18T05:21:00;21.85;;;11.48;;
76495;SDS011;65329;52.544;4.662;2022-12-18T05:23:27;24.10;;;11.55;;
76495;SDS011;65329;52.544;4.662;2022-12-18T05:25:58;23.95;;;10.88;;
76495;SDS011;65329;52.544;4.662;2022-12-18T05:28:30;22.27;;;10.40;;
76495;SDS011;65329;52.544;4.662;2022-12-18T05:30:59;20.50;;;9.80;;
76495;SDS011;65329;52.544;4.662;2022-12-18T05:33:28;24.80;;;11.13;;
76495;SDS011;65329;52.544;4.662;2022-12-18T05:35:58;24.13;;;12.23;;
76495;SDS011;65329;52.544;4.662;2022-12-18T05:38:29;24.10;;;11.65;;
76495;SDS011;65329;52.544;4.662;2022-12-18T05:40:57;21.00;;;10.13;;
76495;SDS011;65329;52.544;4.662;2022-12-18T05:43:24;22.35;;;9.82;;
76495;SDS011;65329;52.544;4.662;2022-12-18T05:45:52;25.02;;;10.25;;
76495;SDS011;65329;52.544;4.662;2022-12-18T05:48:19;23.83;;;10.65;;
76495;SDS011;65329;52.544;4.662;2022-12-18T05:50:47;25.85;;;12.05;;
76495;SDS011;65329;52.544;4.662;2022-12-18T05:53:16;25.42;;;10.65;;
76495;SDS011;65329;52.544;4.662;2022-12-18T05:55:45;25.25;;;10.30;;
76495;SDS011;65329;52.544;4.662;2022-12-18T05:58:13;20.55;;;9.93;;
76495;SDS011;65329;52.544;4.662;2022-12-18T06:00:41;23.10;;;11.25;;
76495;SDS011;65329;52.544;4.662;2022-12-18T06:03:11;22.17;;;11.70;;
76495;SDS011;65329;52.544;4.662;2022-12-18T06:05:40;25.98;;;11.30;;
76495;SDS011;65329;52.544;4.662;2022-12-18T06:08:08;26.80;;;12.15;;
76495;SDS011;65329;52.544;4.662;2022-12-18T06:10:35;25.13;;;11.00;;
76495;SDS011;65329;52.544;4.662;2022-12-18T06:13:03;21.73;;;11.18;;
76495;SDS011;65329;52.544;4.662;2022-12-18T06:15:30;23.48;;;10.98;;
76495;SDS011;65329;52.544;4.662;2022-12-18T06:17:56;24.02;;;11.73;;
76495;SDS011;65329;52.544;4.662;2022-12-18T06:20:24;23.42;;;10.43;;
76495;SDS011;65329;52.544;4.662;2022-12-18T06:22:58;24.73;;;12.75;;
76495;SDS011;65329;52.544;4.662;2022-12-18T06:25:25;29.08;;;12.05;;
76495;SDS011;65329;52.544;4.662;2022-12-18T06:27:51;20.33;;;10.75;;
76495;SDS011;65329;52.544;4.662;2022-12-18T06:30:18;25.77;;;11.48;;
76495;SDS011;65329;52.544;4.662;2022-12-18T06:32:45;25.23;;;11.63;;
76495;SDS011;65329;52.544;4.662;2022-12-18T06:35:18;22.35;;;10.73;;
76495;SDS011;65329;52.544;4.662;2022-12-18T06:37:46;21.40;;;10.13;;
76495;SDS011;65329;52.544;4.662;2022-12-18T06:40:13;23.80;;;11.85;;
76495;SDS011;65329;52.544;4.662;2022-12-18T06:42:39;27.85;;;11.70;;
76495;SDS011;65329;52.544;4.662;2022-12-18T06:45:06;26.05;;;11.20;;
76495;SDS011;65329;52.544;4.662;2022-12-18T06:47:34;22.25;;;10.40;;
76495;SDS011;65329;52.544;4.662;2022-12-18T06:50:00;24.10;;;11.13;;
76495;SDS011;65329;52.544;4.662;2022-12-18T06:52:27;26.08;;;12.50;;
76495;SDS011;65329;52.544;4.662;2022-12-18T06:54:54;26.63;;;11.82;;
76495;SDS011;65329;52.544;4.662;2022-12-18T06:57:20;24.50;;;11.20;;
76495;SDS011;65329;52.544;4.662;2022-12-18T06:59:47;26.48;;;11.90;;
76495;SDS011;65329;52.544;4.662;2022-12-18T07:02:14;23.85;;;10.35;;
76495;SDS011;65329;52.544;4.662;2022-12-18T07:04:41;27.42;;;12.77;;
76495;SDS011;65329;52.544;4.662;2022-12-18T07:07:08;25.77;;;12.25;;
76495;SDS011;65329;52.544;4.662;2022-12-18T07:09:34;24.80;;;11.68;;
76495;SDS011;65329;52.544;4.662;2022-12-18T07:12:01;27.15;;;11.65;;
76495;SDS011;65329;52.544;4.662;2022-12-18T07:14:28;26.08;;;11.25;;
76495;SDS011;65329;52.544;4.662;2022-12-18T07:16:55;27.85;;;11.57;;
76495;SDS011;65329;52.544;4.662;2022-12-18T07:19:25;26.02;;;10.85;;
76495;SDS011;65329;52.544;4.662;2022-12-18T07:21:51;22.70;;;10.65;;
76495;SDS011;65329;52.544;4.662;2022-12-18T07:24:18;21.77;;;11.48;;
76495;SDS011;65329;52.544;4.662;2022-12-18T07:26:45;26.70;;;12.52;;
76495;SDS011;65329;52.544;4.662;2022-12-18T07:29:13;23.77;;;11.10;;
76495;SDS011;65329;52.544;4.662;2022-12-18T07:31:39;26.83;;;12.98;;
76495;SDS011;65329;52.544;4.662;2022-12-18T07:34:09;26.25;;;12.15;;
76495;SDS011;65329;52.544;4.662;2022-12-18T07:36:38;23.02;;;11.60;;
76495;SDS011;65329;52.544;4.662;2022-12-18T07:39:05;26.52;;;12.07;;
76495;SDS011;65329;52.544;4.662;2022-12-18T07:41:32;23.63;;;11.50;;
76495;SDS011;65329;52.544;4.662;2022-12-18T07:44:08;29.10;;;12.85;;
76495;SDS011;65329;52.544;4.662;2022-12-18T07:46:36;23.10;;;11.80;;
76495;SDS011;65329;52.544;4.662;2022-12-18T07:49:03;26.60;;;12.75;;
76495;SDS011;65329;52.544;4.662;2022-12-18T07:51:30;23.33;;;12.88;;
76495;SDS011;65329;52.544;4.662;2022-12-18T07:53:57;23.55;;;11.73;;
76495;SDS011;65329;52.544;4.662;2022-12-18T07:56:24;25.70;;;12.55;;
76495;SDS011;65329;52.544;4.662;2022-12-18T07:58:53;28.92;;;14.15;;
76495;SDS011;65329;52.544;4.662;2022-12-18T08:01:20;22.75;;;12.35;;
76495;SDS011;65329;52.544;4.662;2022-12-18T08:03:47;25.27;;;12.82;;
76495;SDS011;65329;52.544;4.662;2022-12-18T08:06:17;26.85;;;13.23;;
76495;SDS011;65329;52.544;4.662;2022-12-18T08:08:44;21.50;;;11.15;;
76495;SDS011;65329;52.544;4.662;2022-12-18T08:11:11;24.27;;;12.73;;
76495;SDS011;65329;52.544;4.662;2022-12-18T08:13:37;24.02;;;11.35;;
76495;SDS011;65329;52.544;4.662;2022-12-18T08:16:05;27.05;;;13.10;;
76495;SDS011;65329;52.544;4.662;2022-12-18T08:18:34;25.17;;;11.73;;
76495;SDS011;65329;52.544;4.662;2022-12-18T08:21:18;21.20;;;11.93;;
76495;SDS011;65329;52.544;4.662;2022-12-18T08:23:50;27.25;;;12.38;;
76495;SDS011;65329;52.544;4.662;2022-12-18T08:26:18;22.08;;;12.20;;
76495;SDS011;65329;52.544;4.662;2022-12-18T08:28:46;23.75;;;12.57;;
76495;SDS011;65329;52.544;4.662;2022-12-18T08:31:14;20.92;;;11.40;;
76495;SDS011;65329;52.544;4.662;2022-12-18T08:33:41;19.85;;;10.75;;
76495;SDS011;65329;52.544;4.662;2022-12-18T08:36:09;20.60;;;10.88;;
76495;SDS011;65329;52.544;4.662;2022-12-18T08:38:36;20.60;;;11.25;;
76495;SDS011;65329;52.544;4.662;2022-12-18T08:41:07;19.77;;;10.95;;
76495;SDS011;65329;52.544;4.662;2022-12-18T08:43:37;23.33;;;11.07;;
76495;SDS011;65329;52.544;4.662;2022-12-18T08:46:23;21.02;;;11.32;;
76495;SDS011;65329;52.544;4.662;2022-12-18T08:48:52;23.90;;;11.77;;
76495;SDS011;65329;52.544;4.662;2022-12-18T08:51:19;19.48;;;10.70;;
76495;SDS011;65329;52.544;4.662;2022-12-18T08:53:47;22.00;;;11.32;;
76495;SDS011;65329;52.544;4.662;2022-12-18T08:56:14;19.63;;;10.05;;
76495;SDS011;65329;52.544;4.662;2022-12-18T08:58:42;23.70;;;11.82;;
76495;SDS011;65329;52.544;4.662;2022-12-18T09:01:10;20.35;;;11.38;;
76495;SDS011;65329;52.544;4.662;2022-12-18T09:03:38;19.17;;;10.32;;
76495;SDS011;65329;52.544;4.662;2022-12-18T09:06:07;20.35;;;9.95;;
76495;SDS011;65329;52.544;4.662;2022-12-18T09:08:35;17.75;;;10.50;;
76495;SDS011;65329;52.544;4.662;2022-12-18T09:11:03;19.35;;;9.98;;
76495;SDS011;65329;52.544;4.662;2022-12-18T09:13:30;19.25;;;10.73;;
76495;SDS011;65329;52.544;4.662;2022-12-18T09:15:57;17.80;;;9.50;;
76495;SDS011;65329;52.544;4.662;2022-12-18T09:18:24;18.23;;;9.65;;
76495;SDS011;65329;52.544;4.662;2022-12-18T09:20:51;16.20;;;9.23;;
76495;SDS011;65329;52.544;4.662;2022-12-18T09:23:20;17.38;;;9.02;;
76495;SDS011;65329;52.544;4.662;2022-12-18T09:25:47;16.92;;;9.90;;
76495;SDS011;65329;52.544;4.662;2022-12-18T09:28:16;15.98;;;8.98;;
76495;SDS011;65329;52.544;4.662;2022-12-18T09:30:48;12.95;;;8.65;;
76495;SDS011;65329;52.544;4.662;2022-12-18T09:33:16;15.00;;;9.18;;
76495;SDS011;65329;52.544;4.662;2022-12-18T09:35:44;18.15;;;9.52;;
76495;SDS011;65329;52.544;4.662;2022-12-18T09:38:13;17.95;;;10.25;;
76495;SDS011;65329;52.544;4.662;2022-12-18T09:40:52;16.50;;;10.02;;
76495;SDS011;65329;52.544;4.662;2022-12-18T09:43:28;16.75;;;9.70;;
76495;SDS011;65329;52.544;4.662;2022-12-18T09:46:01;15.93;;;8.93;;
76495;SDS011;65329;52.544;4.662;2022-12-18T09:48:38;15.10;;;8.60;;
76495;SDS011;65329;52.544;4.662;2022-12-18T09:51:13;15.65;;;8.93;;
76495;SDS011;65329;52.544;4.662;2022-12-18T09:53:46;16.90;;;9.02;;
76495;SDS011;65329;52.544;4.662;2022-12-18T09:56:18;15.15;;;7.63;;
76495;SDS011;65329;52.544;4.662;2022-12-18T09:58:51;15.20;;;7.95;;
76495;SDS011;65329;52.544;4.662;2022-12-18T10:01:23;11.73;;;7.57;;
76495;SDS011;65329;52.544;4.662;2022-12-18T10:03:51;13.52;;;8.55;;
76495;SDS011;65329;52.544;4.662;2022-12-18T10:14:53;13.13;;;8.27;;
76495;SDS011;65329;52.544;4.662;2022-12-18T10:17:40;14.07;;;7.90;;
76495;SDS011;65329;52.544;4.662;2022-12-18T10:20:59;16.17;;;8.50;;
76495;SDS011;65329;52.544;4.662;2022-12-18T10:28:10;14.98;;;7.47;;
76495;SDS011;65329;52.544;4.662;2022-12-18T10:30:40;13.15;;;7.40;;
76495;SDS011;65329;52.544;4.662;2022-12-18T10:33:12;12.80;;;7.63;;
76495;SDS011;65329;52.544;4.662;2022-12-18T10:35:48;11.85;;;6.80;;
76495;SDS011;65329;52.544;4.662;2022-12-18T10:43:36;14.13;;;7.53;;
76495;SDS011;65329;52.544;4.662;2022-12-18T10:48:40;15.10;;;7.97;;
76495;SDS011;65329;52.544;4.662;2022-12-18T10:51:07;13.10;;;7.55;;
76495;SDS011;65329;52.544;4.662;2022-12-18T10:53:39;9.95;;;6.65;;
76495;SDS011;65329;52.544;4.662;2022-12-18T10:56:08;12.25;;;6.80;;
76495;SDS011;65329;52.544;4.662;2022-12-18T10:58:36;17.15;;;9.13;;
76495;SDS011;65329;52.544;4.662;2022-12-18T11:03:41;13.23;;;8.40;;
76495;SDS011;65329;52.544;4.662;2022-12-18T11:06:13;13.75;;;7.97;;
76495;SDS011;65329;52.544;4.662;2022-12-18T11:09:02;15.95;;;7.65;;
76495;SDS011;65329;52.544;4.662;2022-12-18T11:11:49;11.57;;;7.18;;
76495;SDS011;65329;52.544;4.662;2022-12-18T11:14:31;13.18;;;7.35;;
76495;SDS011;65329;52.544;4.662;2022-12-18T11:17:00;14.45;;;7.32;;
76495;SDS011;65329;52.544;4.662;2022-12-18T11:19:54;14.52;;;7.65;;
76495;SDS011;65329;52.544;4.662;2022-12-18T11:22:24;13.10;;;7.32;;
76495;SDS011;65329;52.544;4.662;2022-12-18T11:28:00;10.70;;;6.25;;
76495;SDS011;65329;52.544;4.662;2022-12-18T11:30:33;10.15;;;7.47;;
76495;SDS011;65329;52.544;4.662;2022-12-18T11:33:18;12.85;;;7.40;;
76495;SDS011;65329;52.544;4.662;2022-12-18T11:35:50;14.15;;;8.25;;
76495;SDS011;65329;52.544;4.662;2022-12-18T11:40:47;10.80;;;7.10;;
76495;SDS011;65329;52.544;4.662;2022-12-18T11:43:34;12.38;;;7.80;;
76495;SDS011;65329;52.544;4.662;2022-12-18T11:46:08;13.50;;;7.80;;
76495;SDS011;65329;52.544;4.662;2022-12-18T11:48:49;13.10;;;8.18;;
76495;SDS011;65329;52.544;4.662;2022-12-18T11:51:38;12.82;;;8.00;;
76495;SDS011;65329;52.544;4.662;2022-12-18T11:54:15;12.43;;;7.63;;
76495;SDS011;65329;52.544;4.662;2022-12-18T11:59:52;12.25;;;7.22;;
76495;SDS011;65329;52.544;4.662;2022-12-18T12:08:16;12.85;;;7.57;;
76495;SDS011;65329;52.544;4.662;2022-12-18T12:21:46;10.48;;;6.15;;
76495;SDS011;65329;52.544;4.662;2022-12-18T12:26:56;9.48;;;5.72;;
76495;SDS011;65329;52.544;4.662;2022-12-18T12:32:24;15.40;;;7.30;;
76495;SDS011;65329;52.544;4.662;2022-12-18T12:40:46;13.43;;;8.13;;
76495;SDS011;65329;52.544;4.662;2022-12-18T12:46:26;13.00;;;7.25;;
76495;SDS011;65329;52.544;4.662;2022-12-18T12:48:59;17.80;;;7.38;;
76495;SDS011;65329;52.544;4.662;2022-12-18T12:51:37;11.13;;;7.03;;
76495;SDS011;65329;52.544;4.662;2022-12-18T12:54:11;13.52;;;7.80;;
76495;SDS011;65329;52.544;4.662;2022-12-18T13:07:49;13.90;;;7.72;;
76495;SDS011;65329;52.544;4.662;2022-12-18T13:12:54;12.65;;;6.47;;
76495;SDS011;65329;52.544;4.662;2022-12-18T13:15:26;13.60;;;9.10;;
76495;SDS011;65329;52.544;4.662;2022-12-18T13:23:35;16.52;;;7.97;;
76495;SDS011;65329;52.544;4.662;2022-12-18T13:31:13;10.27;;;7.38;;
76495;SDS011;65329;52.544;4.662;2022-12-18T13:34:17;12.50;;;8.48;;
76495;SDS011;65329;52.544;4.662;2022-12-18T13:36:54;12.15;;;7.72;;
76495;SDS011;65329;52.544;4.662;2022-12-18T13:39:25;12.63;;;7.30;;
76495;SDS011;65329;52.544;4.662;2022-12-18T13:44:35;12.85;;;7.28;;
76495;SDS011;65329;52.544;4.662;2022-12-18T13:47:33;11.95;;;7.38;;
76495;SDS011;65329;52.544;4.662;2022-12-18T13:50:18;16.80;;;8.38;;
76495;SDS011;65329;52.544;4.662;2022-12-18T13:52:48;14.15;;;7.97;;
76495;SDS011;65329;52.544;4.662;2022-12-18T13:55:17;12.88;;;7.03;;
76495;SDS011;65329;52.544;4.662;2022-12-18T13:57:46;15.18;;;8.38;;
76495;SDS011;65329;52.544;4.662;2022-12-18T14:00:24;15.07;;;9.07;;
76495;SDS011;65329;52.544;4.662;2022-12-18T14:02:55;14.43;;;7.95;;
76495;SDS011;65329;52.544;4.662;2022-12-18T14:05:26;13.75;;;8.45;;
76495;SDS011;65329;52.544;4.662;2022-12-18T14:07:58;14.00;;;7.80;;
76495;SDS011;65329;52.544;4.662;2022-12-18T14:10:34;12.25;;;7.55;;
76495;SDS011;65329;52.544;4.662;2022-12-18T14:13:23;12.60;;;8.25;;
76495;SDS011;65329;52.544;4.662;2022-12-18T14:15:54;14.80;;;8.20;;
76495;SDS011;65329;52.544;4.662;2022-12-18T14:18:25;15.57;;;9.15;;
76495;SDS011;65329;52.544;4.662;2022-12-18T14:20:58;14.00;;;7.20;;
76495;SDS011;65329;52.544;4.662;2022-12-18T14:23:31;12.55;;;7.20;;
76495;SDS011;65329;52.544;4.662;2022-12-18T14:26:23;12.73;;;7.40;;
76495;SDS011;65329;52.544;4.662;2022-12-18T14:28:51;13.18;;;8.00;;
76495;SDS011;65329;52.544;4.662;2022-12-18T14:31:21;14.85;;;9.18;;
76495;SDS011;65329;52.544;4.662;2022-12-18T14:33:50;14.73;;;8.57;;
76495;SDS011;65329;52.544;4.662;2022-12-18T14:36:18;13.05;;;8.35;;
76495;SDS011;65329;52.544;4.662;2022-12-18T14:38:53;15.35;;;8.35;;
76495;SDS011;65329;52.544;4.662;2022-12-18T14:41:22;13.00;;;8.00;;
76495;SDS011;65329;52.544;4.662;2022-12-18T14:43:50;14.43;;;8.30;;
76495;SDS011;65329;52.544;4.662;2022-12-18T14:51:31;11.45;;;7.10;;
76495;SDS011;65329;52.544;4.662;2022-12-18T14:54:02;12.05;;;7.82;;
76495;SDS011;65329;52.544;4.662;2022-12-18T14:56:35;12.73;;;8.05;;
76495;SDS011;65329;52.544;4.662;2022-12-18T14:59:15;13.50;;;8.77;;
76495;SDS011;65329;52.544;4.662;2022-12-18T15:04:24;11.77;;;7.63;;
76495;SDS011;65329;52.544;4.662;2022-12-18T15:12:42;15.15;;;7.28;;
76495;SDS011;65329;52.544;4.662;2022-12-18T15:18:29;16.42;;;8.35;;
76495;SDS011;65329;52.544;4.662;2022-12-18T15:20:59;15.48;;;7.43;;
76495;SDS011;65329;52.544;4.662;2022-12-18T15:26:11;11.70;;;7.63;;
76495;SDS011;65329;52.544;4.662;2022-12-18T15:33:44;14.65;;;8.25;;
76495;SDS011;65329;52.544;4.662;2022-12-18T15:36:30;11.70;;;7.20;;
76495;SDS011;65329;52.544;4.662;2022-12-18T15:38:57;12.55;;;7.53;;
76495;SDS011;65329;52.544;4.662;2022-12-18T15:41:32;12.05;;;7.93;;
76495;SDS011;65329;52.544;4.662;2022-12-18T15:44:01;11.18;;;8.00;;
76495;SDS011;65329;52.544;4.662;2022-12-18T15:46:29;19.13;;;6.82;;
76495;SDS011;65329;52.544;4.662;2022-12-18T15:48:57;13.48;;;7.00;;
76495;SDS011;65329;52.544;4.662;2022-12-18T15:54:01;16.95;;;6.95;;
76495;SDS011;65329;52.544;4.662;2022-12-18T15:56:30;12.00;;;7.40;;
76495;SDS011;65329;52.544;4.662;2022-12-18T15:59:18;12.70;;;6.85;;
76495;SDS011;65329;52.544;4.662;2022-12-18T16:01:46;14.10;;;7.82;;
76495;SDS011;65329;52.544;4.662;2022-12-18T16:04:16;14.52;;;7.70;;
76495;SDS011;65329;52.544;4.662;2022-12-18T16:06:47;15.10;;;7.25;;
76495;SDS011;65329;52.544;4.662;2022-12-18T16:09:35;15.65;;;8.43;;
76495;SDS011;65329;52.544;4.662;2022-12-18T16:12:03;12.25;;;7.10;;
76495;SDS011;65329;52.544;4.662;2022-12-18T16:14:30;14.25;;;8.27;;
76495;SDS011;65329;52.544;4.662;2022-12-18T16:16:59;14.13;;;8.25;;
76495;SDS011;65329;52.544;4.662;2022-12-18T16:19:28;15.32;;;7.60;;
76495;SDS011;65329;52.544;4.662;2022-12-18T16:21:56;15.02;;;7.18;;
76495;SDS011;65329;52.544;4.662;2022-12-18T16:24:25;12.50;;;7.80;;
76495;SDS011;65329;52.544;4.662;2022-12-18T16:26:56;15.00;;;9.02;;
76495;SDS011;65329;52.544;4.662;2022-12-18T16:29:26;13.35;;;7.32;;
76495;SDS011;65329;52.544;4.662;2022-12-18T16:31:54;12.80;;;8.07;;
76495;SDS011;65329;52.544;4.662;2022-12-18T16:34:33;14.52;;;8.07;;
76495;SDS011;65329;52.544;4.662;2022-12-18T16:37:02;13.32;;;7.22;;
76495;SDS011;65329;52.544;4.662;2022-12-18T16:39:32;12.15;;;7.65;;
76495;SDS011;65329;52.544;4.662;2022-12-18T16:42:04;14.52;;;6.80;;
76495;SDS011;65329;52.544;4.662;2022-12-18T16:44:43;11.32;;;6.97;;
76495;SDS011;65329;52.544;4.662;2022-12-18T16:47:10;15.40;;;8.68;;
76495;SDS011;65329;52.544;4.662;2022-12-18T16:49:40;13.68;;;7.93;;
76495;SDS011;65329;52.544;4.662;2022-12-18T16:52:08;14.00;;;7.85;;
76495;SDS011;65329;52.544;4.662;2022-12-18T16:54:35;13.77;;;7.55;;
76495;SDS011;65329;52.544;4.662;2022-12-18T16:57:02;14.63;;;8.35;;
76495;SDS011;65329;52.544;4.662;2022-12-18T16:59:34;16.17;;;8.18;;
76495;SDS011;65329;52.544;4.662;2022-12-18T17:02:05;15.18;;;8.00;;
76495;SDS011;65329;52.544;4.662;2022-12-18T17:04:37;12.60;;;7.53;;
76495;SDS011;65329;52.544;4.662;2022-12-18T17:07:04;13.90;;;8.02;;
76495;SDS011;65329;52.544;4.662;2022-12-18T17:09:30;16.40;;;8.77;;
76495;SDS011;65329;52.544;4.662;2022-12-18T17:11:57;14.60;;;7.95;;
76495;SDS011;65329;52.544;4.662;2022-12-18T17:14:30;13.45;;;7.40;;
76495;SDS011;65329;52.544;4.662;2022-12-18T17:16:58;13.05;;;7.80;;
76495;SDS011;65329;52.544;4.662;2022-12-18T17:19:48;14.45;;;9.00;;
76495;SDS011;65329;52.544;4.662;2022-12-18T17:22:15;12.77;;;6.78;;
76495;SDS011;65329;52.544;4.662;2022-12-18T17:24:42;14.23;;;7.85;;